createdAt,value
2019-04-01T00:01:40.074Z,23.73
2019-04-01T00:04:08.691Z,23.77
2019-04-01T00:06:37.355Z,22.47
2019-04-01T00:09:07.225Z,24.53
2019-04-01T00:11:35.804Z,23.07
2019-04-01T00:14:04.717Z,24.30
2019-04-01T00:16:33.318Z,23.07
2019-04-01T00:19:03.258Z,24.77
2019-04-01T00:21:32.255Z,23.27
2019-04-01T00:24:00.758Z,23.70
2019-04-01T00:26:29.374Z,25.13
2019-04-01T00:28:57.982Z,22.23
2019-04-01T00:31:26.635Z,25.47
2019-04-01T00:33:55.167Z,21.60
2019-04-01T00:36:23.793Z,23.60
2019-04-01T00:38:52.579Z,22.87
2019-04-01T00:41:21.114Z,22.33
2019-04-01T00:43:53.606Z,24.77
2019-04-01T00:46:22.278Z,23.37
2019-04-01T00:48:50.945Z,23.07
2019-04-01T00:51:19.545Z,22.90
2019-04-01T00:53:48.025Z,26.83
2019-04-01T00:56:16.499Z,22.77
2019-04-01T00:58:45.132Z,26.13
2019-04-01T01:01:13.786Z,26.97
2019-04-01T01:03:42.367Z,25.80
2019-04-01T01:06:10.825Z,24.30
2019-04-01T01:08:39.397Z,27.50
2019-04-01T01:11:08.073Z,25.60
2019-04-01T01:13:36.597Z,24.07
2019-04-01T01:16:05.141Z,27.47
2019-04-01T01:18:33.716Z,23.13
2019-04-01T01:21:02.423Z,22.77
2019-04-01T01:23:31.030Z,24.70
2019-04-01T01:25:59.603Z,23.63
2019-04-01T01:28:28.147Z,24.10
2019-04-01T01:30:56.721Z,24.87
2019-04-01T01:33:25.291Z,27.73
2019-04-01T01:35:54.041Z,26.97
2019-04-01T01:38:22.596Z,27.57
2019-04-01T01:40:51.181Z,26.50
2019-04-01T01:43:19.770Z,27.67
2019-04-01T01:45:48.341Z,28.13
2019-04-01T01:48:16.901Z,26.23
2019-04-01T01:50:45.531Z,26.67
2019-04-01T01:53:14.067Z,30.10
2019-04-01T01:55:42.842Z,28.60
2019-04-01T01:58:11.365Z,29.20
2019-04-01T02:00:41.306Z,28.90
2019-04-01T02:03:09.939Z,32.30
2019-04-01T02:05:38.470Z,31.80
2019-04-01T02:08:07.040Z,32.80
2019-04-01T02:10:35.722Z,30.93
2019-04-01T02:13:04.482Z,30.67
2019-04-01T02:15:33.014Z,32.43
2019-04-01T02:18:01.585Z,34.10
2019-04-01T02:20:30.113Z,33.73
2019-04-01T02:22:58.614Z,35.00
2019-04-01T02:25:27.151Z,34.40
2019-04-01T02:27:55.766Z,36.17
2019-04-01T02:30:24.302Z,37.13
2019-04-01T02:32:52.871Z,38.27
2019-04-01T02:35:21.595Z,38.33
2019-04-01T02:37:50.129Z,39.10
2019-04-01T02:40:21.953Z,42.60
2019-04-01T02:42:48.950Z,42.03
2019-04-01T02:45:17.624Z,40.97
2019-04-01T02:47:46.368Z,45.13
2019-04-01T02:50:15.069Z,39.83
2019-04-01T02:52:43.743Z,42.23
2019-04-01T02:55:12.378Z,42.53
2019-04-01T02:57:40.914Z,45.23
2019-04-01T03:00:09.789Z,46.00
2019-04-01T03:02:38.402Z,45.17
2019-04-01T03:05:07.846Z,43.40
2019-04-01T03:07:36.489Z,45.90
2019-04-01T03:10:06.178Z,44.73
2019-04-01T03:12:34.794Z,49.17
2019-04-01T03:15:04.151Z,46.67
2019-04-01T03:17:32.810Z,47.83
2019-04-01T03:20:01.368Z,50.80
2019-04-01T03:22:29.926Z,51.10
2019-04-01T03:24:58.529Z,50.80
2019-04-01T03:27:27.074Z,50.80
2019-04-01T03:29:55.702Z,51.07
2019-04-01T03:32:24.244Z,51.57
2019-04-01T03:34:52.852Z,52.87
2019-04-01T03:37:21.491Z,49.20
2019-04-01T03:39:50.036Z,52.93
2019-04-01T03:42:18.582Z,49.60
2019-04-01T03:44:47.221Z,55.23
2019-04-01T03:47:15.853Z,54.97
2019-04-01T03:49:44.426Z,56.43
2019-04-01T03:52:13.057Z,52.20
2019-04-01T03:54:41.661Z,55.50
2019-04-01T03:57:10.237Z,55.17
2019-04-01T03:59:38.827Z,57.47
2019-04-01T04:02:07.321Z,57.03
2019-04-01T04:04:35.945Z,56.13
2019-04-01T04:07:04.571Z,56.87
2019-04-01T04:09:33.195Z,59.10
2019-04-01T04:12:01.789Z,60.23
2019-04-01T04:14:30.391Z,58.90
2019-04-01T04:16:58.953Z,56.97
2019-04-01T04:19:27.493Z,58.90
2019-04-01T04:21:56.135Z,62.23
2019-04-01T04:24:24.746Z,64.20
2019-04-01T04:26:53.318Z,61.17
2019-04-01T04:29:21.864Z,61.87
2019-04-01T04:31:50.435Z,65.53
2019-04-01T04:34:19.125Z,68.23
2019-04-01T04:36:47.799Z,63.30
2019-04-01T04:39:17.936Z,68.07
2019-04-01T04:41:46.753Z,62.57
2019-04-01T04:44:15.575Z,62.80
2019-04-01T04:46:44.119Z,64.87
2019-04-01T04:49:12.694Z,62.77
2019-04-01T04:51:41.230Z,59.43
2019-04-01T04:54:09.868Z,61.27
2019-04-01T04:56:38.397Z,61.07
2019-04-01T04:59:09.483Z,63.60
2019-04-01T05:01:38.124Z,63.47
2019-04-01T05:04:06.802Z,59.70
2019-04-01T05:06:35.497Z,58.23
2019-04-01T05:09:06.167Z,61.30
2019-04-01T05:11:34.908Z,53.53
2019-04-01T05:14:03.638Z,56.90
2019-04-01T05:16:32.298Z,58.87
2019-04-01T05:19:00.825Z,63.70
2019-04-01T05:21:30.040Z,57.53
2019-04-01T05:24:01.916Z,57.87
2019-04-01T05:26:31.911Z,58.57
2019-04-01T05:29:02.812Z,57.87
2019-04-01T05:31:33.466Z,56.77
2019-04-01T05:34:02.412Z,55.73
2019-04-01T05:36:31.630Z,54.93
2019-04-01T05:39:00.556Z,57.57
2019-04-01T05:41:30.050Z,54.80
2019-04-01T05:44:02.139Z,60.40
2019-04-01T05:46:29.718Z,55.90
2019-04-01T05:48:58.398Z,57.07
2019-04-01T05:51:27.094Z,54.90
2019-04-01T05:53:55.854Z,58.13
2019-04-01T05:56:24.453Z,59.00
2019-04-01T05:58:53.172Z,57.00
2019-04-01T06:01:26.358Z,58.67
2019-04-01T06:03:55.114Z,54.77
2019-04-01T06:06:24.384Z,58.73
2019-04-01T06:08:53.582Z,51.63
2019-04-01T06:11:22.197Z,56.33
2019-04-01T06:13:50.939Z,60.00
2019-04-01T06:16:19.819Z,50.43
2019-04-01T06:18:48.531Z,55.53
2019-04-01T06:21:17.403Z,53.37
2019-04-01T06:23:46.210Z,57.90
2019-04-01T06:26:14.831Z,51.27
2019-04-01T06:28:43.525Z,54.37
2019-04-01T06:31:12.125Z,53.77
2019-04-01T06:33:40.929Z,55.40
2019-04-01T06:36:09.546Z,52.47
2019-04-01T06:38:38.191Z,52.70
2019-04-01T06:41:06.835Z,49.20
2019-04-01T06:43:35.552Z,53.30
2019-04-01T06:46:04.470Z,55.53
2019-04-01T06:48:33.078Z,50.67
2019-04-01T06:51:01.792Z,51.97
2019-04-01T06:53:30.389Z,51.80
2019-04-01T06:55:59.014Z,53.53
2019-04-01T06:58:27.622Z,50.27
2019-04-01T07:00:56.311Z,47.77
2019-04-01T07:03:25.489Z,51.00
2019-04-01T07:05:54.185Z,49.23
2019-04-01T07:08:22.865Z,50.70
2019-04-01T07:10:51.585Z,51.83
2019-04-01T07:13:20.289Z,48.07
2019-04-01T07:15:48.891Z,50.87
2019-04-01T07:18:17.548Z,49.63
2019-04-01T07:20:46.221Z,51.10
2019-04-01T07:23:14.894Z,46.90
2019-04-01T07:25:43.604Z,47.13
2019-04-01T07:28:13.354Z,47.63
2019-04-01T07:30:42.539Z,45.87
2019-04-01T07:33:11.295Z,49.87
2019-04-01T07:35:39.941Z,49.47
2019-04-01T07:38:08.569Z,46.60
2019-04-01T07:40:37.342Z,48.40
2019-04-01T07:43:06.041Z,46.87
2019-04-01T07:45:34.947Z,43.90
2019-04-01T07:48:03.655Z,45.33
2019-04-01T07:50:32.267Z,46.90
2019-04-01T07:53:01.517Z,42.13
2019-04-01T07:55:30.205Z,45.20
2019-04-01T07:57:59.919Z,46.17
2019-04-01T08:00:28.916Z,45.50
2019-04-01T08:02:58.017Z,48.90
2019-04-01T08:05:26.636Z,47.60
2019-04-01T08:07:55.470Z,42.17
2019-04-01T08:10:24.136Z,43.57
2019-04-01T08:12:56.938Z,41.70
2019-04-01T08:15:25.587Z,41.80
2019-04-01T08:17:54.277Z,40.93
2019-04-01T08:20:22.986Z,43.00
2019-04-01T08:22:51.601Z,44.03
2019-04-01T08:25:20.234Z,41.30
2019-04-01T08:27:48.898Z,42.77
2019-04-01T08:30:17.639Z,46.97
2019-04-01T08:32:46.423Z,40.17
2019-04-01T08:35:15.205Z,38.73
2019-04-01T08:37:43.817Z,37.53
2019-04-01T08:40:12.554Z,40.47
2019-04-01T08:42:41.173Z,38.43
2019-04-01T08:45:10.905Z,37.90
2019-04-01T08:47:39.648Z,37.37
2019-04-01T08:50:09.610Z,39.57
2019-04-01T08:52:38.357Z,34.70
2019-04-01T08:55:08.231Z,34.60
2019-04-01T08:57:36.962Z,33.47
2019-04-01T09:00:07.608Z,31.37
2019-04-01T09:02:36.313Z,33.00
2019-04-01T09:05:06.405Z,34.20
2019-04-01T09:07:35.190Z,31.97
2019-04-01T09:10:04.608Z,32.83
2019-04-01T09:12:33.565Z,32.17
2019-04-01T09:15:02.813Z,32.27
2019-04-01T09:17:31.470Z,32.63
2019-04-01T09:20:00.033Z,33.17
2019-04-01T09:22:28.621Z,33.00
2019-04-01T09:24:57.231Z,33.03
2019-04-01T09:27:25.814Z,34.60
2019-04-01T09:29:54.303Z,33.80
2019-04-01T09:32:22.914Z,32.83
2019-04-01T09:34:51.555Z,32.57
2019-04-01T09:37:20.094Z,32.63
2019-04-01T09:39:48.683Z,32.50
2019-04-01T09:42:17.302Z,32.10
2019-04-01T09:44:45.897Z,31.93
2019-04-01T09:47:14.578Z,32.10
2019-04-01T09:49:43.202Z,32.30
2019-04-01T09:52:11.817Z,33.13
2019-04-01T09:54:40.445Z,31.10
2019-04-01T09:57:17.247Z,31.47
2019-04-01T09:59:39.330Z,31.87
2019-04-01T10:02:08.078Z,30.40
2019-04-01T10:04:36.712Z,31.27
2019-04-01T10:07:05.412Z,31.47
2019-04-01T10:09:33.996Z,30.97
2019-04-01T10:12:02.619Z,33.33
2019-04-01T10:14:31.246Z,31.40
2019-04-01T10:16:59.913Z,30.13
2019-04-01T10:19:28.528Z,32.33
2019-04-01T10:21:57.102Z,33.60
2019-04-01T10:24:25.764Z,31.47
2019-04-01T10:26:57.413Z,32.80
2019-04-01T10:29:26.108Z,33.00
2019-04-01T10:31:54.756Z,34.27
2019-04-01T10:34:23.381Z,34.30
2019-04-01T10:36:52.027Z,33.30
2019-04-01T10:39:20.567Z,33.47
2019-04-01T10:41:49.220Z,32.33
2019-04-01T10:44:17.862Z,33.13
2019-04-01T10:46:46.500Z,32.50
2019-04-01T10:49:15.216Z,30.37
2019-04-01T10:51:44.300Z,32.23
2019-04-01T10:54:12.981Z,30.77
2019-04-01T10:56:41.707Z,31.47
2019-04-01T10:59:10.375Z,33.13
2019-04-01T11:01:38.968Z,31.00
2019-04-01T11:04:07.700Z,30.47
2019-04-01T11:06:36.397Z,31.30
2019-04-01T11:09:07.195Z,32.07
2019-04-01T11:11:36.083Z,31.80
2019-04-01T11:14:04.842Z,31.00
2019-04-01T11:16:34.609Z,30.67
2019-04-01T11:19:03.347Z,31.50
2019-04-01T11:21:32.034Z,32.43
2019-04-01T11:24:01.969Z,32.07
2019-04-01T11:26:30.777Z,29.90
2019-04-01T11:28:59.345Z,30.00
2019-04-01T11:31:28.021Z,30.63
2019-04-01T11:33:56.965Z,30.57
2019-04-01T11:36:25.543Z,31.63
2019-04-01T11:38:54.127Z,30.90
2019-04-01T11:41:22.754Z,29.97
2019-04-01T11:43:52.528Z,28.13
2019-04-01T11:46:22.519Z,30.53
2019-04-01T11:48:51.828Z,27.03
2019-04-01T11:51:31.901Z,28.07
2019-04-01T11:53:51.123Z,28.37
2019-04-01T11:56:19.664Z,27.73
2019-04-01T11:58:48.231Z,28.27
2019-04-01T12:01:19.827Z,26.07
2019-04-01T12:03:48.532Z,29.53
2019-04-01T12:06:17.235Z,27.17
2019-04-01T12:08:45.855Z,26.07
2019-04-01T12:11:14.434Z,27.67
2019-04-01T12:13:43.104Z,28.60
2019-04-01T12:16:11.716Z,26.37
2019-04-01T12:18:40.255Z,26.87
2019-04-01T12:21:08.826Z,27.57
2019-04-01T12:23:37.521Z,26.37
2019-04-01T12:26:14.879Z,32.93
2019-04-01T12:28:36.829Z,26.53
2019-04-01T12:31:08.554Z,26.03
2019-04-01T12:33:37.108Z,27.60
2019-04-01T12:36:06.772Z,26.83
2019-04-01T12:38:35.312Z,23.93
2019-04-01T12:41:04.010Z,23.77
2019-04-01T12:43:33.843Z,25.83
2019-04-01T12:46:02.355Z,23.83
2019-04-01T12:48:31.094Z,24.63
2019-04-01T12:50:59.747Z,24.37
2019-04-01T12:53:28.375Z,24.70
2019-04-01T12:55:57.062Z,24.20
2019-04-01T12:58:25.813Z,26.63
2019-04-01T13:00:54.649Z,23.67
2019-04-01T13:03:23.302Z,26.83
2019-04-01T13:05:51.842Z,23.97
2019-04-01T13:08:20.477Z,24.50
2019-04-01T13:10:50.411Z,23.50
2019-04-01T13:13:22.535Z,23.40
2019-04-01T13:15:49.462Z,23.90
2019-04-01T13:18:18.838Z,22.07
2019-04-01T13:20:47.537Z,23.87
2019-04-01T13:23:16.038Z,24.07
2019-04-01T13:25:44.599Z,24.97
2019-04-01T13:28:13.167Z,26.40
2019-04-01T13:30:41.780Z,25.23
2019-04-01T13:33:10.411Z,22.47
2019-04-01T13:35:39.888Z,22.97
2019-04-01T13:38:10.992Z,23.13
2019-04-01T13:40:39.325Z,24.40
2019-04-01T13:43:07.906Z,23.07
2019-04-01T13:45:36.511Z,25.03
2019-04-01T13:48:05.304Z,22.80
2019-04-01T13:50:33.851Z,22.70
2019-04-01T13:53:02.404Z,24.60
2019-04-01T13:55:31.051Z,23.33
2019-04-01T13:57:59.734Z,23.17
2019-04-01T14:00:28.322Z,24.10
2019-04-01T14:02:56.796Z,24.03
2019-04-01T14:05:25.539Z,23.40
2019-04-01T14:07:54.149Z,23.83
2019-04-01T14:10:22.782Z,24.33
2019-04-01T14:12:51.328Z,25.63
2019-04-01T14:15:20.028Z,22.83
2019-04-01T14:17:48.633Z,24.13
2019-04-01T14:20:17.287Z,28.03
2019-04-01T14:22:45.902Z,24.67
2019-04-01T14:25:14.719Z,25.63
2019-04-01T14:27:43.405Z,24.80
2019-04-01T14:30:12.041Z,23.97
2019-04-01T14:32:40.649Z,25.37
2019-04-01T14:35:10.064Z,26.70
2019-04-01T14:37:39.753Z,27.53
2019-04-01T14:40:09.680Z,27.23
2019-04-01T14:42:39.673Z,28.07
2019-04-01T14:45:10.025Z,23.07
2019-04-01T14:47:55.595Z,27.03
2019-04-01T14:50:09.626Z,28.00
2019-04-01T14:52:38.169Z,26.77
2019-04-01T14:55:07.113Z,24.10
2019-04-01T14:57:37.888Z,24.47
2019-04-01T15:00:09.533Z,25.47
2019-04-01T15:02:38.152Z,26.60
2019-04-01T15:05:06.863Z,24.73
2019-04-01T15:07:35.409Z,30.73
2019-04-01T15:10:08.057Z,23.37
2019-04-01T15:12:36.658Z,30.00
2019-04-01T15:15:07.694Z,32.67
2019-04-01T15:17:36.967Z,23.63
2019-04-01T15:20:07.518Z,23.43
2019-04-01T15:22:36.259Z,22.00
2019-04-01T15:25:06.616Z,22.50
2019-04-01T15:27:35.254Z,23.00
2019-04-01T15:30:04.809Z,21.37
2019-04-01T15:32:33.460Z,29.03
2019-04-01T15:35:02.032Z,22.13
2019-04-01T15:37:32.347Z,24.43
2019-04-01T15:40:00.931Z,20.97
2019-04-01T15:42:29.573Z,24.13
2019-04-01T15:44:58.179Z,20.97
2019-04-01T15:47:26.749Z,21.30
2019-04-01T15:49:55.365Z,23.37
2019-04-01T15:52:23.996Z,22.97
2019-04-01T15:54:52.614Z,22.53
2019-04-01T15:57:21.117Z,24.40
2019-04-01T15:59:49.731Z,25.40
2019-04-01T16:02:18.289Z,22.77
2019-04-01T16:04:46.817Z,20.60
2019-04-01T16:07:15.398Z,22.27
2019-04-01T16:09:43.937Z,21.83
2019-04-01T16:12:12.501Z,21.00
2019-04-01T16:14:41.060Z,23.90
2019-04-01T16:17:09.759Z,23.73
2019-04-01T16:19:41.326Z,21.20
2019-04-01T16:22:10.007Z,21.03
2019-04-01T16:24:38.574Z,23.87
2019-04-01T16:27:07.206Z,24.27
2019-04-01T16:29:35.838Z,20.80
2019-04-01T16:32:04.590Z,21.83
2019-04-01T16:34:34.707Z,22.17
2019-04-01T16:37:03.540Z,22.80
2019-04-01T16:39:32.190Z,20.80
2019-04-01T16:42:00.722Z,20.63
2019-04-01T16:44:31.761Z,20.77
2019-04-01T16:47:00.362Z,25.43
2019-04-01T16:49:29.005Z,22.30
2019-04-01T16:51:57.752Z,24.73
2019-04-01T16:54:26.492Z,23.33
2019-04-01T16:56:55.266Z,23.97
2019-04-01T16:59:23.934Z,21.57
2019-04-01T17:01:52.688Z,22.23
2019-04-01T17:04:21.346Z,20.97
2019-04-01T17:06:50.067Z,20.90
2019-04-01T17:09:19.250Z,22.10
2019-04-01T17:11:47.948Z,20.20
2019-04-01T17:14:16.730Z,20.43
2019-04-01T17:16:45.376Z,22.07
2019-04-01T17:19:13.950Z,23.23
2019-04-01T17:21:42.608Z,21.90
2019-04-01T17:24:11.257Z,23.43
2019-04-01T17:26:45.728Z,21.03
2019-04-01T17:29:14.391Z,24.63
2019-04-01T17:31:43.061Z,21.07
2019-04-01T17:34:11.783Z,21.57
2019-04-01T17:36:40.418Z,21.33
2019-04-01T17:39:12.188Z,26.07
2019-04-01T17:41:46.098Z,25.17
2019-04-01T17:44:14.016Z,22.90
2019-04-01T17:46:42.674Z,21.80
2019-04-01T17:49:11.507Z,24.00
2019-04-01T17:51:40.204Z,23.50
2019-04-01T17:54:08.928Z,24.13
2019-04-01T17:56:37.567Z,22.27
2019-04-01T17:59:06.175Z,23.17
2019-04-01T18:01:34.909Z,20.83
2019-04-01T18:04:03.593Z,22.97
2019-04-01T18:06:32.412Z,21.47
2019-04-01T18:09:01.026Z,23.13
2019-04-01T18:11:29.685Z,21.63
2019-04-01T18:13:58.437Z,22.87
2019-04-01T18:16:27.066Z,24.43
2019-04-01T18:18:55.732Z,25.30
2019-04-01T18:21:24.464Z,23.60
2019-04-01T18:23:52.984Z,21.67
2019-04-01T18:26:24.162Z,23.30
2019-04-01T18:28:53.166Z,24.57
2019-04-01T18:31:21.774Z,23.17
2019-04-01T18:33:56.436Z,26.07
2019-04-01T18:36:20.691Z,24.53
2019-04-01T18:38:52.077Z,25.77
2019-04-01T18:41:22.665Z,24.27
2019-04-01T18:43:51.298Z,24.73
2019-04-01T18:46:21.178Z,23.03
2019-04-01T18:48:50.137Z,24.97
2019-04-01T18:51:20.524Z,24.30
2019-04-01T18:53:49.114Z,21.87
2019-04-01T18:56:17.672Z,21.83
2019-04-01T18:58:46.401Z,23.70
2019-04-01T19:01:15.871Z,23.43
2019-04-01T19:03:44.717Z,21.67
2019-04-01T19:06:13.657Z,25.20
2019-04-01T19:08:42.489Z,25.30
2019-04-01T19:11:15.832Z,25.20
2019-04-01T19:13:44.489Z,26.27
2019-04-01T19:16:16.419Z,22.90
2019-04-01T19:18:52.712Z,22.67
2019-04-01T19:21:21.497Z,24.53
2019-04-01T19:23:50.204Z,24.40
2019-04-01T19:26:18.922Z,21.43
2019-04-01T19:28:47.691Z,24.83
2019-04-01T19:31:16.390Z,24.00
2019-04-01T19:33:44.949Z,20.50
2019-04-01T19:36:13.626Z,22.50
2019-04-01T19:38:42.264Z,20.57
2019-04-01T19:41:10.976Z,19.83
2019-04-01T19:43:39.560Z,19.10
2019-04-01T19:46:09.282Z,24.93
2019-04-01T19:48:38.202Z,21.57
2019-04-01T19:51:06.928Z,25.23
2019-04-01T19:53:35.431Z,21.47
2019-04-01T19:56:04.283Z,21.37
2019-04-01T19:58:32.850Z,20.83
2019-04-01T20:01:01.593Z,21.57
2019-04-01T20:03:30.301Z,24.63
2019-04-01T20:05:58.997Z,25.97
2019-04-01T20:08:27.704Z,22.97
2019-04-01T20:10:56.514Z,21.50
2019-04-01T20:13:25.248Z,22.90
2019-04-01T20:15:53.927Z,24.67
2019-04-01T20:18:22.518Z,22.07
2019-04-01T20:20:51.109Z,27.27
2019-04-01T20:23:19.741Z,24.33
2019-04-01T20:25:49.741Z,21.40
2019-04-01T20:28:18.709Z,22.87
2019-04-01T20:30:47.401Z,24.97
2019-04-01T20:33:17.975Z,22.77
2019-04-01T20:35:46.268Z,22.77
2019-04-01T20:38:14.857Z,21.57
2019-04-01T20:40:43.593Z,21.77
2019-04-01T20:43:12.200Z,22.03
2019-04-01T20:45:41.841Z,24.27
2019-04-01T20:48:11.235Z,23.07
2019-04-01T20:50:39.975Z,24.10
2019-04-01T20:53:08.617Z,23.77
2019-04-01T20:55:47.569Z,21.50
2019-04-01T20:58:07.639Z,28.37
2019-04-01T21:00:37.263Z,18.73
2019-04-01T21:03:06.987Z,21.53
2019-04-01T21:05:35.747Z,21.47
2019-04-01T21:08:04.425Z,22.10
2019-04-01T21:10:33.128Z,20.83
2019-04-01T21:13:01.665Z,20.57
2019-04-01T21:15:30.678Z,22.33
2019-04-01T21:17:59.457Z,20.10
2019-04-01T21:20:28.140Z,25.33
2019-04-01T21:22:59.523Z,23.10
2019-04-01T21:25:30.006Z,22.23
2019-04-01T21:27:59.614Z,25.63
2019-04-01T21:30:28.366Z,23.33
2019-04-01T21:33:00.063Z,23.23
2019-04-01T21:35:28.874Z,22.37
2019-04-01T21:37:57.918Z,23.10
2019-04-01T21:40:27.961Z,22.20
2019-04-01T21:42:57.045Z,21.27
2019-04-01T21:45:29.870Z,22.30
2019-04-01T21:47:58.555Z,24.20
2019-04-01T21:50:29.571Z,23.70
2019-04-01T21:52:57.930Z,24.27
2019-04-01T21:55:26.617Z,22.13
2019-04-01T21:57:55.413Z,23.67
2019-04-01T22:00:29.807Z,21.30
2019-04-01T22:02:58.488Z,23.37
2019-04-01T22:05:27.215Z,22.33
2019-04-01T22:07:55.867Z,19.97
2019-04-01T22:10:24.491Z,23.47
2019-04-01T22:12:54.097Z,22.80
2019-04-01T22:15:22.701Z,23.73
2019-04-01T22:17:51.332Z,28.17
2019-04-01T22:20:19.918Z,22.87
2019-04-01T22:22:48.569Z,21.43
2019-04-01T22:25:17.264Z,22.17
2019-04-01T22:27:45.821Z,20.00
2019-04-01T22:30:17.082Z,20.30
2019-04-01T22:32:45.982Z,21.73
2019-04-01T22:35:14.657Z,22.63
2019-04-01T22:37:45.035Z,23.40
2019-04-01T22:40:13.733Z,22.27
2019-04-01T22:42:42.362Z,21.07
2019-04-01T22:45:11.226Z,22.97
2019-04-01T22:47:39.868Z,22.00
2019-04-01T22:50:10.124Z,25.57
2019-04-01T22:52:38.754Z,21.33
2019-04-01T22:55:07.549Z,20.90
2019-04-01T22:57:36.101Z,21.80
2019-04-01T23:00:05.999Z,23.80
2019-04-01T23:02:34.610Z,23.87
2019-04-01T23:05:03.517Z,22.03
2019-04-01T23:07:32.211Z,21.40
2019-04-01T23:10:01.792Z,20.77
2019-04-01T23:12:30.389Z,24.60
2019-04-01T23:14:59.146Z,21.40
2019-04-01T23:17:27.778Z,27.40
2019-04-01T23:19:56.337Z,22.67
2019-04-01T23:22:24.991Z,22.93
2019-04-01T23:24:53.524Z,24.10
2019-04-01T23:27:24.034Z,21.43
2019-04-01T23:29:52.842Z,23.90
2019-04-01T23:32:21.742Z,19.83
2019-04-01T23:34:50.323Z,21.43
2019-04-01T23:37:19.019Z,24.43
2019-04-01T23:39:47.544Z,24.93
2019-04-01T23:42:16.098Z,24.77
2019-04-01T23:44:44.795Z,24.47
2019-04-01T23:47:13.337Z,22.10
2019-04-01T23:49:41.878Z,21.80
2019-04-01T23:52:10.438Z,22.80
2019-04-01T23:54:39.134Z,21.60
2019-04-01T23:57:07.681Z,24.40
2019-04-01T23:59:36.458Z,21.93
